Météo

Actualisé à 12h30, Lille

icon

T : 11 °C / H : 77 %
Pression : 1010 Hpa
Vent d'ouest : 33 Km/h

Peu de nuages à 2200 pieds
Nuages épars à 3500 pieds

2024/04/16 11:30 LFQQ 161130Z AUTO 29018KT 9999 FEW022 SCT035 BKN050 11/07 Q1010 TEMPO 34025G45KT 1200 TSRAGS SCT009 BKN013 BKN020CB

Mots clés

Internet web infographiste flyers illustrateur graphiste webmaster PAO assistance informatique logo image invitation affiche création réalisation conception site vitrine voeux carte visite publication publicité impression plaquette charte graphique identité visuelle maintenance freelance


CSS Valide ! Valid HTML 5.0
Prénom
Nom
e-mail
Commentaire